createdAt,value
2023-03-25T00:00:11.925Z,75.98
2023-03-25T00:02:58.633Z,76.08
2023-03-25T00:05:25.265Z,75.97
2023-03-25T00:07:51.973Z,76.67
2023-03-25T00:10:19.197Z,76.95
2023-03-25T00:12:45.758Z,76.85
2023-03-25T00:15:12.282Z,76.77
2023-03-25T00:17:39.161Z,76.73
2023-03-25T00:20:07.218Z,76.98
2023-03-25T00:22:33.592Z,76.93
2023-03-25T00:24:59.999Z,76.89
2023-03-25T00:27:26.448Z,76.79
2023-03-25T00:29:52.839Z,76.97
2023-03-25T00:32:19.415Z,77.34
2023-03-25T00:34:45.793Z,77.36
2023-03-25T00:37:13.070Z,77.78
2023-03-25T00:39:39.397Z,77.56
2023-03-25T00:42:05.880Z,77.38
2023-03-25T00:44:32.201Z,77.52
2023-03-25T00:46:58.549Z,77.49
2023-03-25T00:49:25.010Z,78.01
2023-03-25T00:51:53.239Z,78.08
2023-03-25T00:54:20.392Z,77.45
2023-03-25T00:56:47.560Z,77.41
2023-03-25T00:59:14.103Z,77.77
2023-03-25T01:01:40.776Z,78.22
2023-03-25T01:04:07.192Z,78.42
2023-03-25T01:06:35.252Z,77.74
2023-03-25T01:09:03.679Z,77.59
2023-03-25T01:11:31.261Z,77.76
2023-03-25T01:13:57.635Z,77.92
2023-03-25T01:16:24.312Z,77.85
2023-03-25T01:18:50.719Z,78.54
2023-03-25T01:21:17.805Z,79.00
2023-03-25T01:23:44.178Z,78.77
2023-03-25T01:26:10.845Z,78.69
2023-03-25T01:28:39.230Z,79.38
2023-03-25T01:31:06.696Z,78.73
2023-03-25T01:33:33.638Z,78.76
2023-03-25T01:36:00.428Z,78.85
2023-03-25T01:38:27.976Z,79.00
2023-03-25T01:40:54.427Z,79.13
2023-03-25T01:43:21.195Z,79.36
2023-03-25T01:45:47.671Z,78.97
2023-03-25T01:48:16.855Z,78.89
2023-03-25T01:50:47.059Z,78.70
2023-03-25T01:53:13.498Z,78.93
2023-03-25T01:55:39.901Z,78.72
2023-03-25T01:58:09.482Z,78.37
2023-03-25T02:00:36.340Z,78.27
2023-03-25T02:03:03.177Z,78.06
2023-03-25T02:05:33.952Z,78.02
2023-03-25T02:08:01.513Z,77.90
2023-03-25T02:10:28.635Z,77.73
2023-03-25T02:12:55.324Z,77.68
2023-03-25T02:15:21.827Z,77.68
2023-03-25T02:17:54.841Z,77.57
2023-03-25T02:20:24.190Z,77.67
2023-03-25T02:22:59.496Z,77.71
2023-03-25T02:25:25.798Z,77.83
2023-03-25T02:27:56.815Z,77.88
2023-03-25T02:30:48.208Z,77.81
2023-03-25T02:33:20.742Z,77.84
2023-03-25T02:35:50.350Z,78.10
2023-03-25T02:38:35.724Z,78.23
2023-03-25T02:41:16.169Z,78.13
2023-03-25T02:43:51.170Z,78.56
2023-03-25T02:46:18.514Z,78.48
2023-03-25T02:48:53.993Z,78.33
2023-03-25T02:51:22.703Z,78.03
2023-03-25T02:53:49.541Z,77.97
2023-03-25T02:56:17.059Z,78.57
2023-03-25T02:58:44.605Z,78.59
2023-03-25T03:01:11.092Z,77.91
2023-03-25T03:03:37.485Z,77.88
2023-03-25T03:06:04.820Z,77.87
2023-03-25T03:08:44.018Z,77.80
2023-03-25T03:11:13.099Z,77.77
2023-03-25T03:13:51.406Z,77.82
2023-03-25T03:16:29.889Z,78.24
2023-03-25T03:19:19.508Z,78.20
2023-03-25T03:22:21.519Z,78.14
2023-03-25T03:25:08.026Z,77.78
2023-03-25T03:27:37.282Z,77.71
2023-03-25T03:30:06.570Z,77.54
2023-03-25T03:32:39.217Z,77.44
2023-03-25T03:35:09.175Z,77.43
2023-03-25T03:37:45.253Z,77.45
2023-03-25T03:40:17.536Z,77.44
2023-03-25T03:42:50.475Z,77.59
2023-03-25T03:45:20.362Z,77.58
2023-03-25T03:47:50.525Z,77.45
2023-03-25T03:50:19.929Z,77.49
2023-03-25T03:52:49.516Z,77.36
2023-03-25T03:55:20.052Z,77.30
2023-03-25T03:57:55.823Z,77.26
2023-03-25T04:00:25.325Z,77.22
2023-03-25T04:02:55.976Z,77.18
2023-03-25T04:05:26.852Z,77.33
2023-03-25T04:07:55.263Z,77.27
2023-03-25T04:10:33.043Z,77.20
2023-03-25T04:13:01.751Z,77.24
2023-03-25T04:15:28.028Z,77.18
2023-03-25T04:17:54.452Z,77.16
2023-03-25T04:20:24.245Z,77.13
2023-03-25T04:22:51.259Z,77.10
2023-03-25T04:25:18.171Z,77.10
2023-03-25T04:27:44.468Z,77.08
2023-03-25T04:30:10.931Z,77.33
2023-03-25T04:32:37.289Z,77.45
2023-03-25T04:35:03.937Z,77.20
2023-03-25T04:37:30.279Z,77.10
2023-03-25T04:39:56.544Z,76.98
2023-03-25T04:42:22.829Z,77.01
2023-03-25T04:44:49.085Z,77.00
2023-03-25T04:47:17.276Z,76.97
2023-03-25T04:49:43.677Z,76.93
2023-03-25T04:52:10.480Z,76.90
2023-03-25T04:54:36.852Z,76.92
2023-03-25T04:57:03.479Z,76.97
2023-03-25T04:59:29.770Z,76.88
2023-03-25T05:01:56.183Z,76.82
2023-03-25T05:04:22.626Z,76.78
2023-03-25T05:06:48.959Z,76.77
2023-03-25T05:09:16.748Z,76.75
2023-03-25T05:11:43.043Z,76.79
2023-03-25T05:14:09.631Z,76.77
2023-03-25T05:16:36.018Z,76.75
2023-03-25T05:19:02.996Z,76.71
2023-03-25T05:21:29.975Z,76.72
2023-03-25T05:23:56.400Z,76.74
2023-03-25T05:26:23.011Z,76.75
2023-03-25T05:28:49.302Z,76.77
2023-03-25T05:31:15.700Z,76.76
2023-03-25T05:33:41.999Z,76.68
2023-03-25T05:36:09.337Z,76.67
2023-03-25T05:38:36.015Z,76.73
2023-03-25T05:41:02.275Z,76.83
2023-03-25T05:43:28.530Z,76.76
2023-03-25T05:45:55.020Z,76.71
2023-03-25T05:48:21.564Z,76.56
2023-03-25T05:50:47.861Z,76.52
2023-03-25T05:53:14.282Z,76.45
2023-03-25T05:55:41.190Z,76.33
2023-03-25T05:58:07.540Z,76.25
2023-03-25T06:00:34.958Z,76.28
2023-03-25T06:03:02.539Z,76.19
2023-03-25T06:05:28.981Z,75.97
2023-03-25T06:07:55.334Z,75.85
2023-03-25T06:10:22.047Z,75.80
2023-03-25T06:12:48.565Z,75.80
2023-03-25T06:15:16.200Z,75.79
2023-03-25T06:17:43.263Z,75.71
2023-03-25T06:20:10.352Z,75.62
2023-03-25T06:22:38.042Z,75.48
2023-03-25T06:25:04.564Z,75.44
2023-03-25T06:27:30.994Z,75.42
2023-03-25T06:29:57.317Z,74.87
2023-03-25T06:32:23.666Z,75.01
2023-03-25T06:34:50.074Z,75.18
2023-03-25T06:37:16.535Z,75.37
2023-03-25T06:39:42.954Z,75.33
2023-03-25T06:42:15.213Z,75.41
2023-03-25T06:44:51.284Z,74.99
2023-03-25T06:47:27.632Z,73.76
2023-03-25T06:49:54.089Z,72.36
2023-03-25T06:52:20.366Z,73.14
2023-03-25T06:54:46.719Z,73.06
2023-03-25T06:57:13.251Z,72.99
2023-03-25T06:59:39.621Z,72.72
2023-03-25T07:02:06.360Z,71.95
2023-03-25T07:04:32.845Z,72.15
2023-03-25T07:06:59.241Z,72.01
2023-03-25T07:09:25.618Z,71.71
2023-03-25T07:11:52.117Z,71.08
2023-03-25T07:14:18.599Z,71.60
2023-03-25T07:16:44.984Z,70.84
2023-03-25T07:19:11.490Z,70.55
2023-03-25T07:21:37.836Z,70.92
2023-03-25T07:24:04.238Z,69.52
2023-03-25T07:26:30.610Z,69.71
2023-03-25T07:28:57.059Z,69.19
2023-03-25T07:31:23.439Z,68.90
2023-03-25T07:33:49.742Z,69.32
2023-03-25T07:36:16.550Z,69.53
2023-03-25T07:38:43.305Z,69.06
2023-03-25T07:41:10.736Z,69.27
2023-03-25T07:43:38.913Z,69.23
2023-03-25T07:46:31.761Z,69.03
2023-03-25T07:48:58.155Z,69.37
2023-03-25T07:51:24.464Z,68.74
2023-03-25T07:53:51.079Z,67.80
2023-03-25T07:56:17.549Z,68.40
2023-03-25T07:58:43.943Z,67.37
2023-03-25T08:01:10.626Z,67.84
2023-03-25T08:03:37.111Z,67.02
2023-03-25T08:06:03.570Z,65.60
2023-03-25T08:08:30.280Z,64.70
2023-03-25T08:10:56.776Z,63.76
2023-03-25T08:13:23.227Z,62.34
2023-03-25T08:15:50.404Z,62.34
2023-03-25T08:18:17.086Z,63.95
2023-03-25T08:20:43.412Z,62.09
2023-03-25T08:23:10.822Z,60.61
2023-03-25T08:25:38.439Z,61.16
2023-03-25T08:28:04.823Z,62.60
2023-03-25T08:30:35.913Z,60.10
2023-03-25T08:33:02.561Z,60.59
2023-03-25T08:35:28.978Z,59.74
2023-03-25T08:37:55.393Z,61.14
2023-03-25T08:40:21.699Z,61.61
2023-03-25T08:42:47.997Z,60.86
2023-03-25T08:45:15.837Z,59.12
2023-03-25T08:47:43.014Z,58.92
2023-03-25T08:50:09.506Z,57.73
2023-03-25T08:52:35.788Z,57.97
2023-03-25T08:55:02.596Z,57.55
2023-03-25T08:57:28.891Z,58.06
2023-03-25T08:59:55.464Z,58.85
2023-03-25T09:02:22.139Z,58.32
2023-03-25T09:04:48.546Z,58.78
2023-03-25T09:07:15.020Z,59.93
2023-03-25T09:09:41.378Z,59.47
2023-03-25T09:12:07.956Z,58.85
2023-03-25T09:14:34.905Z,57.28
2023-03-25T09:17:01.275Z,54.47
2023-03-25T09:19:27.685Z,54.64
2023-03-25T09:21:54.572Z,54.37
2023-03-25T09:24:20.878Z,54.32
2023-03-25T09:26:47.230Z,55.47
2023-03-25T09:29:13.596Z,53.96
2023-03-25T09:31:39.928Z,56.27
2023-03-25T09:34:07.067Z,55.20
2023-03-25T09:36:33.432Z,56.19
2023-03-25T09:38:59.740Z,56.52
2023-03-25T09:41:26.074Z,54.48
2023-03-25T09:43:55.308Z,52.25
2023-03-25T09:46:21.997Z,52.21
2023-03-25T09:48:49.151Z,52.23
2023-03-25T09:51:21.447Z,52.03
2023-03-25T09:53:53.738Z,53.69
2023-03-25T09:56:22.326Z,54.60
2023-03-25T09:58:53.587Z,54.88
2023-03-25T10:01:39.173Z,52.30
2023-03-25T10:04:05.515Z,52.48
2023-03-25T10:06:37.047Z,51.32
2023-03-25T10:09:12.717Z,50.76
2023-03-25T10:11:48.415Z,49.42
2023-03-25T10:14:19.295Z,48.49
2023-03-25T10:17:12.653Z,50.23
2023-03-25T10:19:51.114Z,47.54
2023-03-25T10:22:21.666Z,45.20
2023-03-25T10:24:50.650Z,46.13
2023-03-25T10:27:23.127Z,45.15
2023-03-25T10:29:53.301Z,44.03
2023-03-25T10:32:36.930Z,43.59
2023-03-25T10:35:05.243Z,41.61
2023-03-25T10:37:33.562Z,43.81
2023-03-25T10:40:10.299Z,44.13
2023-03-25T10:42:39.122Z,45.26
2023-03-25T10:45:13.675Z,46.46
2023-03-25T10:47:42.273Z,48.53
2023-03-25T10:50:13.893Z,51.47
2023-03-25T10:52:40.638Z,54.68
2023-03-25T10:55:17.447Z,57.42
2023-03-25T10:57:44.068Z,58.97
2023-03-25T11:00:15.158Z,60.63
2023-03-25T11:02:41.800Z,62.78
2023-03-25T11:05:08.584Z,63.03
2023-03-25T11:07:47.464Z,64.94
2023-03-25T11:10:16.807Z,64.95
2023-03-25T11:12:43.624Z,68.00
2023-03-25T11:15:14.687Z,68.59
2023-03-25T11:17:41.897Z,67.63
2023-03-25T11:20:16.029Z,67.70
2023-03-25T11:22:46.393Z,67.99
2023-03-25T11:25:18.699Z,69.15
2023-03-25T11:27:49.243Z,68.64
2023-03-25T11:30:17.714Z,68.49
2023-03-25T11:32:44.170Z,70.47
2023-03-25T11:35:15.225Z,71.06
2023-03-25T11:37:46.577Z,71.30
2023-03-25T11:40:14.616Z,66.15
2023-03-25T11:42:42.849Z,57.34
2023-03-25T11:45:18.329Z,57.77
2023-03-25T11:47:44.959Z,57.64
2023-03-25T11:50:25.689Z,61.68
2023-03-25T11:52:57.384Z,50.76
2023-03-25T11:55:41.028Z,48.82
2023-03-25T11:58:13.422Z,51.58
2023-03-25T12:00:40.881Z,50.19
2023-03-25T12:03:13.790Z,45.81
2023-03-25T12:05:40.934Z,43.17
2023-03-25T12:08:17.595Z,38.28
2023-03-25T12:10:43.929Z,42.93
2023-03-25T12:13:20.828Z,39.21
2023-03-25T12:15:51.117Z,36.64
2023-03-25T12:18:31.092Z,38.94
2023-03-25T12:20:58.134Z,42.51
2023-03-25T12:23:35.882Z,44.51
2023-03-25T12:26:02.248Z,45.05
2023-03-25T12:28:38.250Z,45.98
2023-03-25T12:31:07.769Z,46.52
2023-03-25T12:33:39.609Z,47.07
2023-03-25T12:36:39.814Z,48.54
2023-03-25T12:39:32.253Z,50.03
2023-03-25T12:42:17.712Z,51.46
2023-03-25T12:44:46.941Z,53.57
2023-03-25T12:47:13.196Z,56.38
2023-03-25T12:49:47.774Z,56.07
2023-03-25T12:52:23.378Z,61.29
2023-03-25T12:54:56.120Z,60.27
2023-03-25T12:57:38.105Z,61.71
2023-03-25T13:00:20.921Z,61.80
2023-03-25T13:03:01.029Z,65.64
2023-03-25T13:05:31.078Z,65.71
2023-03-25T13:08:00.297Z,64.11
2023-03-25T13:10:33.023Z,65.94
2023-03-25T13:13:00.921Z,68.44
2023-03-25T13:15:32.174Z,67.42
2023-03-25T13:18:17.438Z,66.56
2023-03-25T13:20:50.707Z,67.29
2023-03-25T13:23:19.689Z,66.59
2023-03-25T13:25:58.639Z,66.40
2023-03-25T13:28:35.653Z,65.81
2023-03-25T13:31:02.468Z,66.49
2023-03-25T13:33:31.546Z,65.98
2023-03-25T13:36:08.065Z,66.47
2023-03-25T13:38:40.195Z,63.52
2023-03-25T13:41:33.321Z,59.64
2023-03-25T13:44:07.231Z,56.19
2023-03-25T13:46:33.984Z,59.06
2023-03-25T13:49:12.485Z,53.31
2023-03-25T13:51:39.754Z,48.19
2023-03-25T13:54:12.860Z,50.14
2023-03-25T13:56:48.601Z,46.67
2023-03-25T13:59:33.698Z,42.95
2023-03-25T14:02:00.698Z,43.73
2023-03-25T14:04:27.190Z,38.36
2023-03-25T14:07:03.589Z,42.44
2023-03-25T14:09:48.800Z,44.64
2023-03-25T14:12:18.387Z,46.23
2023-03-25T14:14:47.819Z,47.24
2023-03-25T14:17:15.831Z,48.06
2023-03-25T14:19:44.572Z,49.86
2023-03-25T14:22:16.418Z,50.94
2023-03-25T14:24:43.509Z,51.31
2023-03-25T14:27:16.411Z,51.88
2023-03-25T14:29:51.799Z,52.90
2023-03-25T14:32:18.677Z,53.65
2023-03-25T14:34:45.888Z,54.41
2023-03-25T14:37:21.855Z,55.51
2023-03-25T14:39:48.254Z,54.93
2023-03-25T14:42:20.656Z,55.38
2023-03-25T14:44:48.757Z,56.31
2023-03-25T14:47:15.104Z,56.38
2023-03-25T14:50:02.847Z,55.53
2023-03-25T14:52:32.084Z,55.14
2023-03-25T14:55:00.539Z,54.61
2023-03-25T14:57:29.329Z,54.38
2023-03-25T14:59:59.902Z,54.02
2023-03-25T15:02:27.770Z,54.35
2023-03-25T15:04:54.114Z,53.51
2023-03-25T15:07:38.663Z,53.61
2023-03-25T15:10:05.916Z,52.67
2023-03-25T15:12:36.663Z,52.54
2023-03-25T15:15:07.299Z,53.70
2023-03-25T15:17:42.771Z,53.51
2023-03-25T15:20:09.863Z,55.34
2023-03-25T15:22:36.600Z,55.40
2023-03-25T15:25:10.323Z,55.07
2023-03-25T15:28:09.375Z,55.40
2023-03-25T15:30:39.046Z,55.99
2023-03-25T15:33:16.308Z,55.82
2023-03-25T15:35:45.799Z,55.54
2023-03-25T15:38:18.233Z,55.27
2023-03-25T15:41:03.357Z,55.05
2023-03-25T15:43:57.863Z,55.81
2023-03-25T15:46:33.390Z,56.68
2023-03-25T15:49:35.305Z,56.75
2023-03-25T15:52:07.517Z,56.98
2023-03-25T15:54:37.062Z,58.40
2023-03-25T15:57:06.338Z,59.67
2023-03-25T15:59:51.117Z,60.61
2023-03-25T16:02:37.834Z,61.37
2023-03-25T16:05:05.335Z,62.14
2023-03-25T16:07:33.263Z,62.92
2023-03-25T16:10:17.979Z,62.71
2023-03-25T16:12:49.177Z,63.59
2023-03-25T16:15:16.366Z,63.76
2023-03-25T16:17:45.690Z,64.23
2023-03-25T16:20:13.906Z,64.60
2023-03-25T16:22:41.563Z,64.60
2023-03-25T16:25:16.905Z,64.19
2023-03-25T16:27:44.360Z,63.96
2023-03-25T16:30:23.086Z,63.80
2023-03-25T16:32:49.745Z,63.54
2023-03-25T16:35:19.216Z,63.39
2023-03-25T16:37:45.583Z,63.46
2023-03-25T16:40:14.111Z,63.16
2023-03-25T16:42:40.489Z,63.30
2023-03-25T16:45:07.646Z,63.43
2023-03-25T16:47:34.344Z,63.63
2023-03-25T16:50:01.956Z,63.70
2023-03-25T16:52:31.241Z,63.87
2023-03-25T16:54:57.969Z,63.76
2023-03-25T16:57:28.985Z,63.66
2023-03-25T16:59:55.763Z,63.69
2023-03-25T17:02:24.080Z,63.85
2023-03-25T17:04:50.624Z,63.93
2023-03-25T17:07:18.355Z,63.85
2023-03-25T17:09:49.001Z,63.86
2023-03-25T17:12:19.661Z,64.26
2023-03-25T17:14:46.972Z,63.86
2023-03-25T17:17:26.606Z,63.94
2023-03-25T17:19:53.657Z,64.24
2023-03-25T17:22:24.927Z,64.33
2023-03-25T17:24:53.961Z,64.95
2023-03-25T17:27:25.368Z,64.98
2023-03-25T17:29:55.934Z,64.89
2023-03-25T17:32:22.869Z,64.88
2023-03-25T17:34:57.603Z,65.25
2023-03-25T17:37:25.176Z,65.45
2023-03-25T17:39:52.232Z,65.69
2023-03-25T17:42:23.393Z,65.90
2023-03-25T17:44:50.167Z,66.44
2023-03-25T17:47:17.507Z,66.17
2023-03-25T17:49:44.023Z,66.51
2023-03-25T17:52:35.824Z,66.29
2023-03-25T17:55:02.323Z,66.06
2023-03-25T17:57:29.806Z,66.01
2023-03-25T17:59:56.181Z,65.99
2023-03-25T18:02:23.028Z,65.79
2023-03-25T18:04:49.647Z,65.77
2023-03-25T18:07:16.071Z,65.70
2023-03-25T18:09:42.534Z,65.68
2023-03-25T18:12:10.753Z,65.79
2023-03-25T18:14:37.173Z,65.98
2023-03-25T18:17:03.749Z,65.80
2023-03-25T18:19:30.295Z,66.04
2023-03-25T18:21:57.815Z,66.11
2023-03-25T18:24:27.678Z,66.17
2023-03-25T18:26:54.562Z,66.34
2023-03-25T18:29:23.137Z,66.53
2023-03-25T18:31:50.306Z,66.46
2023-03-25T18:34:17.207Z,66.60
2023-03-25T18:36:44.313Z,66.89
2023-03-25T18:39:14.932Z,67.25
2023-03-25T18:41:41.448Z,67.16
2023-03-25T18:44:08.036Z,67.23
2023-03-25T18:46:35.508Z,67.36
2023-03-25T18:49:02.562Z,67.34
2023-03-25T18:51:29.241Z,67.54
2023-03-25T18:53:55.671Z,67.37
2023-03-25T18:56:22.573Z,67.35
2023-03-25T18:58:48.952Z,67.38
2023-03-25T19:01:15.792Z,67.33
2023-03-25T19:03:42.362Z,67.59
2023-03-25T19:06:10.363Z,67.73
2023-03-25T19:08:37.035Z,67.92
2023-03-25T19:11:16.391Z,67.91
2023-03-25T19:13:46.131Z,68.51
2023-03-25T19:16:12.865Z,68.48
2023-03-25T19:18:39.426Z,68.89
2023-03-25T19:21:06.130Z,68.69
2023-03-25T19:23:32.756Z,68.74
2023-03-25T19:26:00.039Z,68.82
2023-03-25T19:28:27.752Z,69.13
2023-03-25T19:30:59.088Z,69.36
2023-03-25T19:33:25.712Z,69.23
2023-03-25T19:35:54.272Z,69.42
2023-03-25T19:38:21.781Z,69.61
2023-03-25T19:40:54.554Z,69.45
2023-03-25T19:43:21.050Z,69.27
2023-03-25T19:45:47.626Z,69.17
2023-03-25T19:48:14.035Z,69.27
2023-03-25T19:50:40.819Z,69.24
2023-03-25T19:53:07.600Z,69.32
2023-03-25T19:55:33.935Z,69.27
2023-03-25T19:58:00.432Z,69.25
2023-03-25T20:00:28.895Z,69.19
2023-03-25T20:02:58.176Z,69.18
2023-03-25T20:05:25.102Z,69.26
2023-03-25T20:07:51.964Z,69.28
2023-03-25T20:10:20.358Z,69.48
2023-03-25T20:12:47.406Z,69.70
2023-03-25T20:15:14.338Z,69.53
2023-03-25T20:17:41.053Z,69.57
2023-03-25T20:20:09.358Z,69.71
2023-03-25T20:22:36.381Z,69.74
2023-03-25T20:25:03.936Z,70.02
2023-03-25T20:27:30.669Z,69.92
2023-03-25T20:29:57.467Z,69.88
2023-03-25T20:32:34.010Z,69.85
2023-03-25T20:35:07.704Z,70.18
2023-03-25T20:37:37.137Z,70.04
2023-03-25T20:40:04.662Z,70.06
2023-03-25T20:42:31.856Z,70.13
2023-03-25T20:45:01.790Z,70.21
2023-03-25T20:47:28.236Z,70.18
2023-03-25T20:49:54.648Z,70.48
2023-03-25T20:52:24.700Z,70.54
2023-03-25T20:54:54.095Z,70.52
2023-03-25T20:57:21.580Z,70.79
2023-03-25T20:59:48.238Z,71.34
2023-03-25T21:02:14.729Z,71.51
2023-03-25T21:04:41.112Z,71.53
2023-03-25T21:07:07.592Z,71.27
2023-03-25T21:09:33.964Z,71.60
2023-03-25T21:12:00.673Z,71.70
2023-03-25T21:14:28.052Z,71.73
2023-03-25T21:16:54.786Z,71.92
2023-03-25T21:19:21.711Z,71.95
2023-03-25T21:21:48.153Z,72.08
2023-03-25T21:24:16.924Z,72.46
2023-03-25T21:26:43.979Z,72.64
2023-03-25T21:29:10.393Z,73.10
2023-03-25T21:31:36.800Z,73.33
2023-03-25T21:34:03.714Z,73.17
2023-03-25T21:36:30.235Z,73.53
2023-03-25T21:38:57.889Z,73.47
2023-03-25T21:41:24.751Z,73.35
2023-03-25T21:43:51.478Z,73.26
2023-03-25T21:46:18.220Z,72.78
2023-03-25T21:48:44.741Z,72.29
2023-03-25T21:51:11.704Z,72.29
2023-03-25T21:53:38.048Z,71.65
2023-03-25T21:56:04.564Z,71.40
2023-03-25T21:58:32.444Z,71.31
2023-03-25T22:00:59.773Z,70.46
2023-03-25T22:03:27.484Z,70.78
2023-03-25T22:05:54.461Z,70.36
2023-03-25T22:08:21.093Z,69.90
2023-03-25T22:10:47.813Z,69.95
2023-03-25T22:13:14.119Z,69.89
2023-03-25T22:15:40.454Z,69.46
2023-03-25T22:18:07.044Z,68.98
2023-03-25T22:20:33.555Z,68.96
2023-03-25T22:22:59.874Z,68.84
2023-03-25T22:25:26.350Z,68.03
2023-03-25T22:27:53.000Z,68.53
2023-03-25T22:30:19.346Z,68.56
2023-03-25T22:32:45.808Z,68.07
2023-03-25T22:35:12.678Z,67.92
2023-03-25T22:37:39.458Z,67.34
2023-03-25T22:40:06.738Z,67.38
2023-03-25T22:42:33.093Z,68.01
2023-03-25T22:44:59.406Z,68.07
2023-03-25T22:47:25.907Z,68.09
2023-03-25T22:49:52.305Z,67.57
2023-03-25T22:52:18.583Z,67.80
2023-03-25T22:54:44.935Z,66.92
2023-03-25T22:57:11.426Z,66.82
2023-03-25T22:59:37.874Z,67.42
2023-03-25T23:02:04.209Z,67.59
2023-03-25T23:04:30.648Z,67.77
2023-03-25T23:07:07.311Z,67.81
2023-03-25T23:09:35.248Z,67.68
2023-03-25T23:12:01.599Z,67.66
2023-03-25T23:14:27.932Z,67.69
2023-03-25T23:16:54.270Z,67.71
2023-03-25T23:19:20.708Z,67.47
2023-03-25T23:21:47.039Z,67.43
2023-03-25T23:24:13.417Z,67.43
2023-03-25T23:26:40.292Z,67.24
2023-03-25T23:29:08.110Z,67.16
2023-03-25T23:31:35.430Z,67.14
2023-03-25T23:34:04.104Z,67.17
2023-03-25T23:36:31.212Z,67.14
2023-03-25T23:38:57.530Z,67.11
2023-03-25T23:41:24.021Z,67.16
2023-03-25T23:43:51.214Z,67.21
2023-03-25T23:46:18.553Z,67.30
2023-03-25T23:48:45.126Z,67.51
2023-03-25T23:51:12.965Z,67.73
2023-03-25T23:53:40.113Z,67.93
2023-03-25T23:56:06.689Z,68.29
2023-03-25T23:58:33.381Z,68.09
